Estación de Las Viñas

Ultimos registro cada 15 minutos 24
Estación Fecha / Hora Temperatura Humedad Lluvia Velocidad Dirección Radiación Presion
24 Las Viñas 10-05-2026 05:45 7,6 80 0 0,4 150 0 1018,9
23 Las Viñas 10-05-2026 05:30 7,3 81 0 0 175 0 1019
22 Las Viñas 10-05-2026 05:15 7,2 82 0 0 170 0 1019,2
21 Las Viñas 10-05-2026 05:00 7,1 82 0 0 137 0 1019,1
20 Las Viñas 10-05-2026 04:45 7,1 82 0 0 153 0 1019,2
19 Las Viñas 10-05-2026 04:30 7,2 82 0 0 130 0 1019,2
18 Las Viñas 10-05-2026 04:15 7,2 82 0 0 170 0 1019
17 Las Viñas 10-05-2026 04:00 7,3 82 0 0 156 0 1019,1
16 Las Viñas 10-05-2026 03:45 7,3 81 0 0,4 193 0 1019,2
15 Las Viñas 10-05-2026 03:30 7,4 81 0 0,9 175 0 1019,5
14 Las Viñas 10-05-2026 03:15 7,6 80 0 0 208 0 1019,7
13 Las Viñas 10-05-2026 03:00 7,8 80 0 0 108 0 1019,8
12 Las Viñas 10-05-2026 02:45 8 79 0 0,4 202 0 1019,9
11 Las Viñas 10-05-2026 02:30 8,2 78 0 0 175 0 1020
10 Las Viñas 10-05-2026 02:15 8,3 78 0 0 195 0 1020,2
9 Las Viñas 10-05-2026 02:00 8,3 77 0 0 304 0 1020,1
8 Las Viñas 10-05-2026 01:45 8,3 77 0 0 162 0 1020
7 Las Viñas 10-05-2026 01:30 8,3 77 0 0 139 0 1020,2
6 Las Viñas 10-05-2026 01:15 8,4 76 0 0 135 0 1020,2
5 Las Viñas 10-05-2026 01:00 8,5 76 0 0 123 0 1020,3
4 Las Viñas 10-05-2026 00:45 8,6 76 0 0 164 0 1020,3
3 Las Viñas 10-05-2026 00:30 8,6 76 0 0 185 0 1020,5
2 Las Viñas 10-05-2026 00:15 8,7 76 0 0 156 0 1020,7
1 Las Viñas 10-05-2026 00:00 8,7 76 0 0 200 0 1020,8